10 novembre 2017

Rotax MAX Challenge Grand Finals 2017
4. - 11. November 2017 (Portimao Portugal)

Mondial Karting

Pre-Final Heat Group A 125 Junior MAX (R41):
Platz StNr Name NAT Entrant Entrant-Nat Runden Gesamtzeit Fast Lap in Lap Differenz Abstand
1 240 Van Walstijn, Senna NED JJ Racing NED 11 11:11.623 1:00.348 6
2 203 Foster, Tommy GBR Dan Holland Racing GBR 11 11:11.993 1:00.344 5 + 0.370 + 0.370
3 233 Prouteau, Camille FRA Franck Prouteau FRA 11 11:12.880 1:00.211 10 + 1.257 + 0.887
4 272 Leistra, Luca BEL Pedro Leistra BEL 11 11:14.565 1:00.172 5 + 2.942 + 1.685
5 208 Pope, Jaiden AUS Int. Karting Distributors AUS 11 11:14.632 59.933 5 + 3.009 + 0.067
6 222 Wood, Ryan NZL Shane Wood NZL 11 11:14.871 1:00.048 7 + 3.248 + 0.239
7 216 Deukmedjian, Arias USA SRA Karting International CAN 11 11:14.953 1:00.187 7 + 3.330 + 0.082
8 238 Hamada, Toranosuke JPN Eiko Japan JPN 11 11:15.016 1:00.131 7 + 3.393 + 0.063
9 234 Riis, Mads DEN Mads RathckeThomsen DEN 11 11:15.258 1:00.590 7 + 3.635 + 0.242
10 267 Handsaeme, Xavier BEL Xavier Handsaeme BEL 11 11:15.317 1:00.243 8 + 3.694 + 0.059
11 237 Morin, Hannes SWE Hannes Morin SWE 11 11:15.392 59.829 9 + 3.769 + 0.075
12 205 Camara, Rafael BRA Wilton Santos junior PAR 11 11:16.575 1:00.201 9 + 4.952 + 1.183
13 204 Donicz, Kamil POL Uniq Racing POL 11 11:16.731 1:00.026 9 + 5.108 + 0.156
14 250 Turiev, Maksim RUS Aviagamma RUS 11 11:17.054 1:00.167 8 + 5.431 + 0.323
15 249 Leon, Noel MEX Noel Leon MEX 11 11:18.272 1:00.319 8 + 6.649 + 1.218
16 230 Mizera, Marek CZE MS Kart Racing Team V ACR CZE 11 11:19.785 1:00.401 7 + 8.162 + 1.513
17 258 Doerr, Ben GER CRG Performance GER 11 11:19.943 1:00.448 10 + 8.320 + 0.158
18 228 Woods-Toth, Patrick CAN SRA Karting International CAN 11 11:20.347 1:00.174 9 + 8.724 + 0.404
19 215 Greenemeier, Hannah USA SRA Karting International CAN 11 11:22.165 1:00.403 9 + 10.542 + 1.818
20 231 Bernier, Victor FRA Fabrice Bernier FRA 11 11:22.620 1:00.066 7 + 10.997 + 0.455
21 213 Hannus, Jimi FIN Jukka Hannus FIN 11 11:22.718 1:00.820 3 + 11.095 + 0.098
22 259 Aradhya, Yash IND Sujith Aradhya IND 11 11:23.120 1:00.274 6 + 11.497 + 0.402
23 263 Duerksen, Joshua PAR Daniel Candia PAR 11 11:25.990 1:00.573 9 + 14.367 + 2.870
24 235 Leung, Jason CAN SRA Karting International CAN 11 11:26.692 1:00.619 10 + 15.069 + 0.702
25 239 Van Vugt, Mike NED JJ Racing NED 11 11:28.940 59.928 10 + 17.317 + 2.248
26 266 Tlemsani, Malik ALG Nrdi ALG 11 11:28.970 1:01.003 8 + 17.347 + 0.030
27 247 Schober, Patrick SVK Kf Racing Team SVK 11 11:29.391 1:00.911 11 + 17.768 + 0.421
28 264 Robinson, Lachlan UAE Al Ain Raceway UAE 11 11:30.231 1:00.259 10 + 18.608 + 0.840
29 265 Crystal, Liam UAE Al Ain Raceway UAE 11 11:33.297 1:00.499 10 + 21.674 + 3.066
30 226 Salmaan, Hussein EGY Mohamed Saad EGY 11 11:33.947 1:01.510 9 + 22.324 + 0.650
31 256 Otto, Fritzler ARG Edgardo Fritzler ARG 11 11:46.078 1:00.493 11 + 34.455 + 12.131
32 223 Jerich, Frederick AUT Speedworld Academy AUT 7 7:42.247 1:01.413 6 -4 R -4 R
33 224 Sidler, Mario SUI Kart-Club Oerlikon SUI 3 3:18.589 1:03.567 2 -8 R -4 R
34 271 Barzallo, Matias ECU Claudia Toledo COL 2 2:12.853 1:02.871 2 -9 R -1 R
35 252 Rivas, Gaston URU Gerardo Rivas URU 2 2:15.645 1:04.851 2 -9 R + 2.792
36 209 Ravenscroft, Clayton GBR KR Sport UK GBR

Pre-Final Heat Group B 125 Junior MAX (R45):
Platz StNr Name NAT Entrant Entrant-Nat Runden Gesamtzeit Fast Lap in Lap Differenz Abstand
1 202 Van Der Helm, Tijmen NED Gerard Van Der Helm NED 11 11:11.821 1:00.452 7
2 218 Crawford, Jak USA SRA Karting International CAN 11 11:14.169 1:00.571 7 + 2.348 + 2.348
3 206 Preston, Jac AUS Int. Karting Distributors AUS 11 11:17.635 1:00.304 9 + 5.814 + 3.466
4 221 Meguetounif, Sami FRA Pierre Meguetounif FRA 11 11:18.373 1:00.454 10 + 6.552 + 0.738
5 269 Bataller Camare, Ivan ESP EKR Kart Racing ESP 11 11:18.439 1:00.469 9 + 6.618 + 0.066
6 236 Moriyama, Tosei JPN Eiko Japan JPN 11 11:18.531 1:00.428 9 + 6.710 + 0.092
7 232 Saarniala, Axel FIN Kohtala Sports FIN 11 11:18.724 1:00.585 9 + 6.903 + 0.193
8 210 Feeney, Broc AUS Int. Karting Distributors AUS 11 11:19.051 1:00.287 9 + 7.230 + 0.327
9 217 Gonzalez, Tyler USA SRA Karting International CAN 11 11:19.633 1:00.356 10 + 7.812 + 0.582
10 255 Ibrahim, Muhammad IND Praga Asia KRS MAS 11 11:19.873 1:00.421 8 + 8.052 + 0.240
11 262 Sei, Karl-Markus EST TGT Racing EST 11 11:20.005 1:00.671 9 + 8.184 + 0.132
12 207 Penov, Hristo BUL Vladimir Penov BUL 11 11:21.611 1:00.742 7 + 9.790 + 1.606
13 229 Malecek, Jan CZE MS Kart Racing Team V ACR CZE 11 11:21.983 1:00.789 10 + 10.162 + 0.372
14 201 Nagy, Sandor HUN Top-Motorsport Egyesuelet HUN 11 11:25.089 1:01.003 5 + 13.268 + 3.106
15 227 De Oliveira, Guilherme POR Paulo De Oliveira POR 11 11:26.394 1:00.812 9 + 14.573 + 1.305
16 220 Boyd, Sebatian RSA Boyd Warren RSA 11 11:27.154 1:01.211 10 + 15.333 + 0.760
17 214 Coertze, Joshua RSA Kobie Coertze RSA 11 11:27.377 1:00.959 10 + 15.556 + 0.223
18 270 Komninos, Konstantinos GRE Speed Force GRE 11 11:27.521 1:01.074 10 + 15.700 + 0.144
19 260 Tangniannatchai, Ananthorn THA Praga Asia KRS MAS 11 11:27.884 1:00.890 10 + 16.063 + 0.363
20 241 Krasko, Heorhii UKR Kartprom UKR 11 11:28.478 1:00.836 9 + 16.657 + 0.594
21 219 Vair, Hugo FRA Guignet Jean Philipe FRA 11 11:28.780 1:00.482 10 + 16.959 + 0.302
22 246 Galvanin, Elia ITA Claudio Galvanin ITA 11 11:29.230 1:00.517 8 + 17.409 + 0.450
23 225 Sjogren, Simon SWE West Speed Racing SWE 11 11:29.670 1:00.668 10 + 17.849 + 0.440
24 254 Shin, Woojin KOR TRK Promotion KOR 11 11:30.412 1:00.846 11 + 18.591 + 0.742
25 261 Diaz Rodriguez, Juan Jose COL Claudia Toledo COL 11 11:31.728 1:00.666 9 + 19.907 + 1.316
26 243 Makushin, Matvei LAT Team Victoria LAT 11 11:32.853 1:00.583 11 + 21.032 + 1.125
27 257 Wisnicki, Piotr POL Wyrzykowski Motorsport POL 11 11:33.728 1:00.853 11 + 21.907 + 0.875
28 211 Pokos, Jan CRO Sportstil SLO 11 11:34.175 1:00.688 11 + 22.354 + 0.447
29 245 Leroux, Romain SIN Praga Asia KRS MAS 11 11:34.824 1:00.887 11 + 23.003 + 0.649
30 251 Bykonya, Fedor RUS Aviagamma RUS 11 11:36.811 1:00.647 9 + 24.990 + 1.987
31 253 Martinez, Mariano MEX Mariano Martinez MEX 11 11:38.375 1:01.330 6 + 26.554 + 1.564
32 244 Kao, Jie TPE Eiko Taiwan TPE 11 11:41.830 1:00.968 10 + 30.009 + 3.455
33 212 Yammine, Charbel LIB Azimut Automotive LIB 11 11:41.881 1:01.026 9 + 30.060 + 0.051
34 248 Arione, Gianni CHI Francisco Portell CHI 11 11:47.125 1:00.929 9 + 35.304 + 5.244
35 242 Bernardi, Marco ITA Guerrino Bernardi ITA 5 5:18.414 1:01.347 4 -6 R -6 R
36 268 Shameli, Mehrbod IRI Alireza Sabbagh IRI

Pre-Final Heat Group A 125 MAX (R42):
Platz StNr Name NAT Entrant Entrant-Nat Runden Gesamtzeit Fast Lap in Lap Differenz Abstand
1 365 Warge, Felix BEL Warge Felix BEL 15 15:12.846 1:00.022 11
2 315 Brown-Nutley, Jordan GBR Dan Holland Racing GBR 15 15:13.373 1:00.065 10 + 0.527 + 0.527
3 360 Vava, Filip ESP Dobrila Vava Atanackovic ESP 15 15:13.557 1:00.015 6 + 0.711 + 0.184
4 340 Novak, Mario AUT KSB Racing Team AUT 15 15:13.829 1:00.053 10 + 0.983 + 0.272
5 352 Hunter, Rhys GBR KR Sport UK GBR 15 15:13.916 59.904 8 + 1.070 + 0.087
6 318 Kverkild, Ruben NOR Team Pro-Karting NOR 15 15:14.260 1:00.092 7 + 1.414 + 0.344
7 338 Signoretti, Marco CAN SRA Karting International CAN 15 15:14.413 1:00.064 11 + 1.567 + 0.153
8 333 Macdermid, Ryan CAN SRA Karting International CAN 15 15:15.014 1:00.147 9 + 2.168 + 0.601
9 314 Jenner, Bradley AUS Int. Karting Distributors AUS 15 15:15.104 1:00.098 9 + 2.258 + 0.090
10 332 Selliken, Lucas USA SRA Karting International CAN 15 15:16.201 1:00.029 12 + 3.355 + 1.097
11 355 Rehme, David SWE Dan Holland Racing GBR 15 15:17.754 1:00.318 11 + 4.908 + 1.553
12 309 Gregula, Jakub POL JR Racing POL 15 15:17.847 1:00.223 10 + 5.001 + 0.093
13 303 Johnson, James GBR Dan Holland Racing GBR 15 15:18.309 1:00.420 9 + 5.463 + 0.462
14 317 Ioannou, Nikolaos GRE Kartworks GRE 15 15:19.303 1:00.573 7 + 6.457 + 0.994
15 353 Coutinho, Goncalo POR Rui Coutinho POR 15 15:19.624 1:00.388 9 + 6.778 + 0.321
16 316 Sarrazin, Arnaud FRA Sarrazin Arnaud FRA 15 15:20.469 1:00.312 15 + 7.623 + 0.845
17 349 Portell, Diego CHI Francisco Portell CHI 15 15:21.123 1:00.410 7 + 8.277 + 0.654
18 361 Veerus, Ragnar EST TGT Racing EST 15 15:22.220 1:00.182 4 + 9.374 + 1.097
19 308 Rizk, Carl LIB Azimut Automotive LIB 15 15:22.975 1:00.311 7 + 10.129 + 0.755
20 311 Dovjak, Anze SLO Sportstil SLO 15 15:24.080 1:00.546 9 + 11.234 + 1.105
21 307 Kaprzyk, Mateusz POL JR Racing POL 15 15:24.274 1:00.557 4 + 11.428 + 0.194
22 358 De Bock, Jules NED Jerica Beurskens NED 15 15:24.692 1:00.520 9 + 11.846 + 0.418
23 326 Fridell, Rasmus SWE Radne Motor Ab SWE 15 15:25.872 1:00.159 12 + 13.026 + 1.180
24 366 Pilo, Juan Pablo ARG Encina Raolo Fabian ARG 15 15:26.208 1:00.458 7 + 13.362 + 0.336
25 348 Matsuzawa, Ryosuke JPN Eiko Japan JPN 15 15:26.339 1:00.429 4 + 13.493 + 0.131
26 301 Ramos, Benjamin CHI Cesar Ramos Abukhalil CHI 15 15:26.570 1:00.528 4 + 13.724 + 0.231
27 363 Kortelainen, Rasmus FIN Kortelainen Jani FIN 15 15:27.349 1:00.460 6 + 14.503 + 0.779
28 339 Cusson, Logan CAN SRA Karting International CAN 15 15:27.533 1:00.325 12 + 14.687 + 0.184
29 371 Boroumand, Bardia IRI Alireza Sabbagh IRI 15 15:28.025 1:00.635 13 + 15.179 + 0.492
30 351 Chernyshov, Denys UKR Kartprom Team UKR 15 15:30.248 1:00.522 9 + 17.402 + 2.223
31 337 Kamenok, Artsemi BLR Aviagamma RUS 15 15:30.455 1:00.583 11 + 17.609 + 0.207
32 367 Al Saei, Khalid BRN Al Ain Raceway UAE 15 15:30.552 1:00.543 13 + 17.706 + 0.097
33 369 Salhi, Sofiane ALG Nrdi ALG 15 15:31.018 1:00.590 11 + 18.172 + 0.466
34 328 Loyer, Patrick PER Claudia Toledo COL 15 15:33.955 1:00.882 6 + 21.109 + 2.937
35 330 Dupell, Kyle USA SRA Karting International CAN 8 8:20.477 1:00.709 8 -7 L -7 L
36 321 Herring, Luke RSA Herring Luke RSA 2 2:11.107 1:02.128 2 -13 L -6 L

Pre-Final Heat Group B 125 MAX (R46):
Platz StNr Name NAT Entrant Entrant-Nat Runden Gesamtzeit Fast Lap in Lap Differenz Abstand
1 324 Nomblot, Jean FRA Marc Nomblot FRA 15 15:16.024 1:00.600 12
2 346 Mizuno, Koki JPN Eiko Japan JPN 15 15:16.349 1:00.583 10 + 0.325 + 0.325
3 323 Ward, Brett GBR 3G Racing GER 15 15:16.707 1:00.372 9 + 0.683 + 0.358
4 305 Leppa, Lauri FIN Heikki Vaeisaenen FIN 15 15:16.942 1:00.416 9 + 0.918 + 0.235
5 336 Bezel, Petr CZE Bezel Petr CZE 15 15:16.990 1:00.098 11 + 0.966 + 0.048
6 325 Barrett, Bradley GBR Dan Holland Racing GBR 15 15:18.380 1:00.596 9 + 2.356 + 1.390
7 359 Nistri, Lorenzo ITA Nistri Lorenzo ITA 15 15:18.521 1:00.147 7 + 2.497 + 0.141
8 334 Ritter, Kellen CAN SRA Karting International CAN 15 15:18.673 1:00.344 10 + 2.649 + 0.152
9 372 Andersen, Charlie SWE KR Sport GBR 15 15:19.054 1:00.463 13 + 3.030 + 0.381
10 370 Bordas Cotes, Enric ESP Kids To Win C.E. ESP 15 15:19.392 1:00.514 11 + 3.368 + 0.338
11 347 Zviedris, Valters LAT Jurmala Papas Rt LAT 15 15:20.145 1:00.458 11 + 4.121 + 0.753
12 357 Bergmeier, Tamino GER JJ Racing NED 15 15:20.274 1:00.470 10 + 4.250 + 0.129
13 312 Brewczynski, Cody AUS Int. Karting Distributors AUS 15 15:20.379 1:00.226 7 + 4.355 + 0.105
14 362 Turner, Charlie GBR Turner Charlie GBR 15 15:20.529 1:00.368 5 + 4.505 + 0.150
15 304 Peixoto, Guilherme BRA Wilton Santos junior PAR 15 15:20.631 1:00.415 6 + 4.607 + 0.102
16 313 Cranston, Jacob NZL Cranston Andrew NZL 15 15:20.894 1:00.284 7 + 4.870 + 0.263
17 302 Kovacs, Zsombor HUN KMS Europe HUN 15 15:21.693 1:00.270 7 + 5.669 + 0.799
18 306 Longmore, Cameron AUS Int. Karting Distributors AUS 15 15:21.935 1:00.174 8 + 5.911 + 0.242
19 356 Lee, Chanjoon KOR TRK Promotion KOR 15 15:22.894 1:00.481 7 + 6.870 + 0.959
20 341 Andreasen, Lasse DEN Andreasen Carsten DEN 15 15:23.207 1:00.152 9 + 7.183 + 0.313
21 344 Taborsky, Pavol SVK Ert Racing Team SVK 15 15:23.296 1:00.479 12 + 7.272 + 0.089
22 335 Belhocine, Sebastien CZE Strnadel Motorsport CZE 15 15:23.688 1:00.420 10 + 7.664 + 0.392
23 342 Travnikov, Sergei RUS Aviagamma RUS 15 15:24.197 1:00.491 10 + 8.173 + 0.509
24 327 Schwitter, Jan SUI Speed Racing Gmbh SUI 15 15:24.759 1:00.344 10 + 8.735 + 0.562
25 354 Rakamulya, Rifqi INA Praga Asia KRS MAS 15 15:25.294 1:00.364 11 + 9.270 + 0.535
26 320 Jensen, Victor Conrad THA KRS Motorsports MAS 15 15:25.478 1:00.310 12 + 9.454 + 0.184
27 310 Viktor, Stefan ROU Road Runner Racing Team ROU 15 15:27.497 1:00.657 10 + 11.473 + 2.019
28 364 Cravero, Alejo ARG Juan Manuel Guara ARG 15 15:29.621 1:00.416 10 + 13.597 + 2.124
29 322 Bourdon, Matthieu FRA Claude Bourdon FRA 15 15:30.962 1:00.696 7 + 14.938 + 1.341
30 331 Mallozzi, Stephen USA SRA Karting International CAN 15 15:31.423 1:00.846 8 + 15.399 + 0.461
31 343 Dominguez, Diego PAR Emilio Silva PAR 15 15:31.469 1:00.680 8 + 15.445 + 0.046
32 350 Sanchez, Victor MEX Sanchez Victor MEX 15 15:35.276 1:00.922 8 + 19.252 + 3.807
33 319 Wang, Enqi CHN KRS Motorsports MAS 15 15:36.980 1:01.092 8 + 20.956 + 1.704
34 329 Samy, Ahmed EGY Mohamed Saad EGY 15 15:46.692 1:01.700 9 + 30.668 + 9.712
35 368 Al Qubaisi, Amna UAE Al Ain Raceway UAE 15 15:51.065 1:01.196 9 + 35.041 + 4.373
36 345 Amati, Giorgio ITA Biagio Amati ITA

Pre-Final Heat Group A 125 MAX DD2 (R44):
Platz StNr Name NAT Entrant Entrant-Nat Runden Gesamtzeit Fast Lap in Lap Differenz Abstand
1 402 Gillis, Cody AUS Int. Karting Distributors AUS 15 14:46.065 58.487 10
2 404 De Ruwe, Xen SLO Sportstil SLO 15 14:51.571 58.757 9 + 5.506 + 5.506
3 440 Durante, Cosimo Francesc ITA Cosimo Francesco Durante ITA 15 14:52.037 58.661 9 + 5.972 + 0.466
4 405 Alders, Joey NED Alders Joey NED 15 14:52.214 58.605 9 + 6.149 + 0.177
5 403 Slosar, Jan SLO Sportstil SLO 15 14:53.291 58.615 9 + 7.226 + 1.077
6 412 Liebenberg, Bradley RSA KMS Europe HUN 15 14:54.189 58.624 9 + 8.124 + 0.898
7 426 Aaltonen, Joel FIN Heikki Vaeisaenen FIN 15 14:55.211 58.574 13 + 9.146 + 1.022
8 448 Dueholm, Marc DEN Finn Kroun DEN 15 14:55.370 58.659 8 + 9.305 + 0.159
9 464 Kancsar, Ferenc HUN Kancsar Racing HUN 15 14:55.534 58.873 12 + 9.469 + 0.164
10 406 Birizdo, Imre HUN KMS Europe HUN 15 14:56.564 58.943 9 + 10.499 + 1.030
11 441 Steinerts, Martins LAT Martins Steinerts LAT 15 14:56.629 59.029 12 + 10.564 + 0.065
12 447 Hardja, Prassetyo INA Praga Asia KRS MAS 15 14:56.716 58.859 5 + 10.651 + 0.087
13 466 Pullinger, Barrie GBR Dan Holland Racing GBR 15 14:56.831 58.924 5 + 10.766 + 0.115
14 457 Pires, Mariano POR Cabo Do Mundo Sportsyou POR 15 14:57.009 58.601 11 + 10.944 + 0.178
15 453 Szabo, Nikolas SVK KMS Europe HUN 15 14:57.385 58.857 4 + 11.320 + 0.376
16 419 Kalesis, Filippos GRE PRT Motorsport GRE 15 14:57.592 58.763 7 + 11.527 + 0.207
17 434 Kashak, Tyler CAN SRA Karting International CAN 15 14:58.992 58.829 8 + 12.927 + 1.400
18 444 Budovskis, Mihails LAT Aleksandrs Budovskis LAT 15 14:59.055 58.725 9 + 12.990 + 0.063
19 420 Coetzee, Jason RSA John Coetzee RSA 15 14:59.343 58.627 8 + 13.278 + 0.288
20 411 Sinclair, Christopher NZL Sinclair Christopher NZL 15 14:59.779 58.901 11 + 13.714 + 0.436
21 458 Stien, Nikolai NOR Team Pro-Karting NOR 15 15:01.963 58.502 12 + 15.898 + 2.184
22 436 Williamson, Andrew FRA Alistair Williamson FRA 15 15:03.395 59.139 9 + 17.330 + 1.432
23 461 Robinson, Jakob UAE Al Ain Raceway UAE 15 15:03.456 59.022 9 + 17.391 + 0.061
24 433 Simioni, Ethan CAN SRA Karting International CAN 15 15:03.735 58.844 14 + 17.670 + 0.279
25 415 Opran, Ioan-Aldrin ROU Jms Performance ROU 15 15:05.893 59.036 8 + 19.828 + 2.158
26 421 Carigiet, Pascal SUI Kart-Club Oerlikon SUI 15 15:07.487 59.072 8 + 21.422 + 1.594
27 409 Cattucci, Alberto BRA Wilton Santos junior PAR 15 15:12.305 59.514 8 + 26.240 + 4.818
28 451 Gonzalez Alcant, Javier MEX Gonzalez Alcantara Javier MEX 15 15:13.695 59.336 11 + 27.630 + 1.390
29 449 Villanueva, Matias CHI Francisco Portell CHI 15 15:17.370 59.328 9 + 31.305 + 3.675
30 467 Henckel Mortens, Martin GER Team VPDR Racing DEN 11 10:55.703 58.787 9 -4 L -4 L
31 417 Mccarthy, Michael USA SRA Karting International CAN 5 5:30.659 1:00.104 3 -10 L -6 L
32 413 Presern, Klemen SLO Sportstil SLO 4 4:13.547 1:00.056 3 -11 L -1 L
33 428 Mauel, Nathan USA SRA Karting International CAN 4 4:13.882 1:00.147 3 -11 L + 0.335
34 472 Toikka, Toni FIN Heikki Vaeisaenen FIN 3 3:07.913 59.890 3 -12 L -1 L
35 442 Iannaccone, Armando ITA Iannaccone Armando ITA 3 3:08.037 59.435 3 -12 L + 0.124
36 408 Belizario, Ruan BRA Wilton Santos junior PAR

Pre-Final Heat Group B 125 MAX DD2 (R48):
Platz StNr Name NAT Entrant Entrant-Nat Runden Gesamtzeit Fast Lap in Lap Differenz Abstand
1 465 Sorensen, Christian DEN Christian Sorensen DEN 15 14:49.329 58.721 7
2 455 Thomsen, Mads DEN Thomsen Mads R. DEN 15 14:50.574 58.716 7 + 1.245 + 1.245
3 456 Fleischmann, Max GER VPDR AUT 15 14:50.817 58.663 6 + 1.488 + 0.243
4 423 Bruegger, Nico SUI Speed Racing Gmbh SUI 15 14:53.848 58.744 9 + 4.519 + 3.031
5 446 Bielecki, Kacper POL Inter Cars Karting Team POL 15 14:54.222 58.862 8 + 4.893 + 0.374
6 425 Viiliaeinen, Ville FIN Heikki Vaeisaenen FIN 15 14:54.891 58.835 9 + 5.562 + 0.669
7 468 Cebrian Ariza, Gerard ESP Motor Club Creixell ESP 15 14:55.688 58.753 9 + 6.359 + 0.797
8 443 Pagliarani, Claudio ITA Pagliarani Claudio ITA 15 14:56.237 58.944 6 + 6.908 + 0.549
9 471 Van Parijs, Glenn BEL Glenn van Parijs BEL 15 14:56.445 58.866 6 + 7.116 + 0.208
10 418 Schoell, Constantin AUT Daems Racing Team BEL 15 14:56.518 58.875 10 + 7.189 + 0.073
11 438 Joly, Lucas FRA Joly Lucas FRA 15 14:57.205 58.688 10 + 7.876 + 0.687
12 462 Al Rawahi, Abdullah OMA Al Ain Raceway UAE 15 14:58.632 58.905 10 + 9.303 + 1.427
13 469 Borlido, Bruno POR Bruno Borlido POR 15 15:00.324 59.042 7 + 10.995 + 1.692
14 401 Dalmau, Oriol ESP Mdc Racing ESP 15 15:00.506 58.804 9 + 11.177 + 0.182
15 435 Claman-Demelo, Zachary CAN SRA Karting International CAN 15 15:00.641 58.825 6 + 11.312 + 0.135
16 416 Kennedy, Ryan AUS Int. Karting Distributors AUS 15 15:00.915 58.645 11 + 11.586 + 0.274
17 422 Buxeda, Jono NZL Buxeda Jono NZL 15 15:01.134 58.723 6 + 11.805 + 0.219
18 414 Njeim, Matthias LIB Azimut Automotive LIB 15 15:01.222 58.919 6 + 11.893 + 0.088
19 429 Cantin, Natael CAN SRA Karting International CAN 15 15:01.282 58.795 6 + 11.953 + 0.060
20 424 Jurmanowicz, Karol POL Wyrzykowski Motorsport POL 15 15:01.796 59.032 6 + 12.467 + 0.514
21 431 Bezel, Jakub CZE Bezel Petr CZE 15 15:02.278 58.961 5 + 12.949 + 0.482
22 439 Ryasnov, Semen RUS Aviagamma RUS 15 15:03.216 59.053 11 + 13.887 + 0.938
23 450 Larroquette, Pablo CHI Francisco Portell Veliz CHI 15 15:05.532 58.875 6 + 16.203 + 2.316
24 407 Alzate, Jose Manuel COL Claudia Toledo COL 15 15:08.117 59.300 6 + 18.788 + 2.585
25 454 Tanioka, Riki JPN Praga Asia KRS MAS 15 15:08.821 59.329 14 + 19.492 + 0.704
26 432 Greco, Davide CAN SRA Karting International CAN 15 15:09.257 58.913 5 + 19.928 + 0.436
27 463 Petersson, Lucas UAE Al Ain Raceway UAE 15 15:09.901 59.019 9 + 20.572 + 0.644
28 445 Liao, Yang TPE Eiko Taiwan TPE 15 15:14.971 59.408 12 + 25.642 + 5.070
29 460 De Bonis, Ramiro ARG Jorge De Bonis ARG 15 15:15.127 59.195 9 + 25.798 + 0.156
30 427 Alzate, Juan Diego COL Claudia Toledo COL 15 15:15.197 59.514 5 + 25.868 + 0.070
31 470 Villacis, Juan Diego ECU Luis Felipe Davila ECU 15 15:16.813 59.343 6 + 27.484 + 1.616
32 452 Herrera, Alejandro MEX Elejandro Herrera MEX 15 15:22.597 59.598 12 + 33.268 + 5.784
33 437 Pinto, Pedro POR Pinto Pedro POR 15 15:23.708 59.151 10 + 34.379 + 1.111
34 459 Povilaitis, Marius LTU AGS Racing Team EST 15 15:28.759 59.794 12 + 39.430 + 5.051
35 430 Habig, Benjamin RSA KMS Europe HUN 12 12:15.224 59.140 10 -3 L -3 L
36 410 Fife, Joshua AUS Int. Karting Distributors AUS 6 6:02.484 58.714 6 -9 L -6 L

Pre-Final Heat Group A 125 MAX DD2 Masters (R43)
Platz StNr Name NAT Entrant Entrant-Nat Runden Gesamtzeit Fast Lap in Lap Differenz Abstand
1 517 Ollikainen, Antti FIN Jussi Malila FIN 15 14:57.182 59.264 8
2 521 Hipp, Charly FRA Langlois Mathieu FRA 15 15:03.037 59.565 7 + 5.855 + 5.855
3 510 Howard, Scott AUS Int. Karting Distributors AUS 15 15:04.107 59.435 8 + 6.925 + 1.070
4 533 Matelic, Primoz SLO AKK Sportstil SLO 15 15:04.340 59.533 7 + 7.158 + 0.233
5 514 Pesevski, Robert AUT Ksca Sodi Austria Team AUT 15 15:04.494 59.135 7 + 7.312 + 0.154
6 559 Kawase, Tomokazu JPN Eiko Japan JPN 15 15:04.853 59.235 9 + 7.671 + 0.359
7 553 Eckholt, Rodrigo CHI Francisco Portell Veliz CHI 15 15:04.963 59.281 8 + 7.781 + 0.110
8 502 Adams, Christophe BEL Christophe Adams BEL 15 15:05.304 59.556 7 + 8.122 + 0.341
9 518 Castro, Ariel USA SRA Karting International CAN 15 15:05.445 59.410 9 + 8.263 + 0.141
10 501 Chittenden, Tiffany NZL Chittenden Tiffany NZL 15 15:05.949 59.305 9 + 8.767 + 0.504
11 548 Baerensen, Michael DEN Lindbaek Baerensen Michael DEN 15 15:06.200 59.325 9 + 9.018 + 0.251
12 571 Perez Santander, Jesus ESP Real Automovil Club ESP 15 15:06.596 59.524 7 + 9.414 + 0.396
13 534 Thomas, Chris GBR Chris Thomas GBR 15 15:06.909 59.273 7 + 9.727 + 0.313
14 505 Trita, Alexandre BRA Trita Alexandre BRA 15 15:07.163 59.557 9 + 9.981 + 0.254
15 567 Mendes, Vitor Manuel POR Vitor Manuel de Freitas Mendes POR 15 15:07.447 59.229 10 + 10.265 + 0.284
16 542 Pieterse, Jonathan RSA Pieterse Jonathan RSA 15 15:07.722 59.331 9 + 10.540 + 0.275
17 566 Amboade, Gaston ARG Amboade Gaston ARG 15 15:09.275 59.510 11 + 12.093 + 1.553
18 509 Wernsen, Frits NED Wernsen Frits NED 15 15:09.531 59.360 8 + 12.349 + 0.256
19 563 Aloskins, Ilja LAT Team Victoria LAT 15 15:09.972 59.388 9 + 12.790 + 0.441
20 535 Stephen, Michael RSA Stephen Michael RSA 15 15:13.169 59.570 8 + 15.987 + 3.197
21 511 Malcolm, David NZL Malcolm David NZL 15 15:16.285 59.865 9 + 19.103 + 3.116
22 532 Tenschert, Manuel AUT KMS Europe HUN 15 15:16.288 59.090 9 + 19.106 + 0.003
23 522 Malm, Stefan SWE KAK/S Motorsport SWE 15 15:16.700 59.802 7 + 19.518 + 0.412
24 515 Zervos, Dimitris GRE Kartworks GRE 15 15:17.238 59.779 10 + 20.056 + 0.538
25 560 Khai Loon, Saw MAS Praga Asia KRS MAS 15 15:17.832 1:00.079 10 + 20.650 + 0.594
26 564 Sei, Priit EST AGS Racing Team EST 15 15:21.403 59.388 13 + 24.221 + 3.571
27 557 Andreasen, Jan DEN Kevin Thygesen DEN 15 15:22.044 59.525 5 + 24.862 + 0.641
28 572 Villacis, Diego ECU Luis Felipe Davila ECU 15 15:27.333 1:00.088 9 + 30.151 + 5.289
29 507 Azana, Roberto Pasqual BRA Azana Roberto Pasqualini BRA 15 15:31.861 1:00.123 8 + 34.679 + 4.528
30 555 Montemayor, Mauricio MEX Montemayor Mauricio MEX 15 15:32.484 1:00.776 4 + 35.302 + 0.623
31 513 Hyvarinen, Petteri FIN Hyvaerinen Petteri FIN 15 15:35.989 1:00.231 10 + 38.807 + 3.505
32 561 Kim, Dongho KOR TRK Promotion KOR 15 15:43.940 1:01.686 2 + 46.758 + 7.951
33 550 Davila, Rafael PER Claudia Toledo COL 15 15:50.824 59.822 11 + 53.642 + 6.884
34 527 Roberts, Scott USA SRA Karting International CAN 5 5:22.578 1:00.154 5 -10 R -10 R
35 528 Crupi, Joe CAN SRA Karting International CAN
36 544 Santos Jr, Wilton BRA Santos Jr Wilton PAR

Pre-Final Heat Group B 125 MAX DD2 Masters (R47)
Platz StNr Name NAT Entrant Entrant-Nat Runden Gesamtzeit Fast Lap in Lap Differenz Abstand
1 530 Zughella, Gabriel ARG Zughella Gabriel ARG 15 14:55.141 59.132 8
2 506 Woolston, Troy AUS Int. Karting Distributors AUS 15 14:56.586 59.136 8 + 1.445 + 1.445
3 565 Helfinger, Tommy GER Praga Offical Racing Team GER 15 15:03.652 59.623 8 + 8.511 + 7.066
4 519 Glauser, Alessandro SUI Kartteam Meier SUI 15 15:04.544 59.558 8 + 9.403 + 0.892
5 537 Dauphin, Mickael FRA Dauphin Mickael FRA 15 15:05.041 59.349 7 + 9.900 + 0.497
6 504 Guzzi, Fernando BRA Guzzi Fernando BRA 15 15:05.245 59.593 8 + 10.104 + 0.204
7 538 Muranski, Slawomir POL Wyrzykowski Motorsport POL 15 15:05.603 59.302 6 + 10.462 + 0.358
8 525 Wang, Derek USA SRA Karting International CAN 15 15:05.837 59.514 7 + 10.696 + 0.234
9 512 Walton, Kris AUS Int. Karting Distributors AUS 15 15:05.984 59.293 8 + 10.843 + 0.147
10 503 Rico Muller, Juan Pablo COL Claudia Toledo COL 15 15:06.377 59.371 8 + 11.236 + 0.393
11 554 Medina, Carlos MEX Medina Carlos MEX 15 15:07.035 59.606 8 + 11.894 + 0.658
12 508 Aboissa, Michel BRA Aboissa Michel BRA 15 15:07.237 59.485 8 + 12.096 + 0.202
13 570 Blockley, Kyle UAE Al Ain Raceway UAE 15 15:07.513 59.462 8 + 12.372 + 0.276
14 551 Torres, Horacio CHI Horacio Torres CHI 15 15:07.816 59.431 8 + 12.675 + 0.303
15 540 Ferdin, Tomasz POL Wyrzykowski Motorsport POL 15 15:08.457 59.566 12 + 13.316 + 0.641
16 531 Weinstock, Patrick GER Team VPDR VPD Racing AUT 15 15:10.700 59.680 10 + 15.559 + 2.243
17 552 Valenzuela, Luis Ignacio CHI Marco Ambiado Olivare CHI 15 15:10.967 59.627 7 + 15.826 + 0.267
18 545 Sato, Yuji JPN Eiko Japan JPN 15 15:11.268 59.694 8 + 16.127 + 0.301
19 520 Koivisto, Jari FIN Koivisto Jari FIN 15 15:12.497 59.629 7 + 17.356 + 1.229
20 536 Mukhin, Igor RUS Aviagamma RUS 15 15:12.571 59.403 7 + 17.430 + 0.074
21 526 Cleavelin, William USA SRA Karting International CAN 15 15:13.297 59.711 11 + 18.156 + 0.726
22 529 Duque Merino, Juan Camilo COL Claudia Toledo COL 15 15:13.588 59.689 8 + 18.447 + 0.291
23 541 Sugiyama, Kengo JPN Eiko Japan JPN 15 15:19.561 1:00.085 7 + 24.420 + 5.973
24 547 Rago, Gregorio ITA Gregorio Rago ITA 15 15:19.849 1:00.217 14 + 24.708 + 0.288
25 569 Day, Kevin UAE Al Ain Raceway UAE 15 15:20.367 1:00.134 11 + 25.226 + 0.518
26 558 Simonetto, Esteban ARG Simonetto Esteban ARG 15 15:21.955 59.939 13 + 26.814 + 1.588
27 562 Lima, Antonia POR Antonia Lima POR 15 15:22.205 1:00.252 11 + 27.064 + 0.250
28 516 Urban, Ryan NZL Urban Ryan NZL 15 15:22.981 59.158 7 + 27.840 + 0.776
29 568 Hogg, Anthony UAE Al Ain Raceway UAE 15 15:25.312 1:00.383 15 + 30.171 + 2.331
30 524 Ossama, Shady EGY Mohamed Saad EGY 15 15:27.538 1:00.430 14 + 32.397 + 2.226
31 523 Sigurdh, Patrik SWE KAK/S Motorsport SWE 15 15:27.636 1:00.654 6 + 32.495 + 0.098
32 546 Tosi, Alessandro ITA Tosi Alessandro ITA 15 15:29.548 1:00.266 9 + 34.407 + 1.912
33 556 Kim, Tae Eun KOR TRK Promotion KOR 15 15:35.660 1:01.200 12 + 40.519 + 6.112
34 549 Lin, Carter TPE Eiko Taiwan TPE 15 15:35.702 1:00.177 12 + 40.561 + 0.042
35 539 Vitols, Gatis LAT Martins Steinerts LAT 6 6:17.477 1:00.676 6 -9 L -9 L

Pre-Final 125 Micro MAX (R39):
Platz StNr Name NAT Entrant Entrant-Nat Runden Gesamtzeit Fast Lap in Lap Differenz Abstand
1 19 Malheiro, Adrian POR Olga Sune Recio POR 9 10:20.513 1:08.057 7
2 35 Al Azhari, Keanu UAE Al Ain Raceway UAE 9 10:20.703 1:07.972 7 + 0.190 + 0.190
3 20 Horachi, Ryota JPN Eiko Japan JPN 9 10:28.608 1:08.575 5 + 8.095 + 7.905
4 9 Zelenko, Leon CRO Sportstil SLO 9 10:28.621 1:08.299 5 + 8.108 + 0.013
5 6 Gladysz, Maciej POL Gladysz Karting Team POL 9 10:28.817 1:08.518 5 + 8.304 + 0.196
6 33 Bernasconi, Felipe ARG Jose Maria Bernasconi ARG 9 10:29.106 1:08.652 5 + 8.593 + 0.289
7 14 Nael, Theophile FRA Laurent Nael FRA 9 10:30.934 1:08.306 6 + 10.421 + 1.828
8 1 Obst, Maksymilian POL Bambini Racing POL 9 10:30.959 1:09.005 4 + 10.446 + 0.025
9 5 Bassani, Antonella BRA Wilton Santos Junior PAR 9 10:32.371 1:08.648 6 + 11.858 + 1.412
10 31 Janovskis, Martins LAT MRG Racing LAT 9 10:32.925 1:08.780 9 + 12.412 + 0.554
11 22 Koros, Zoltan SVK Kf Racing Team SVK 9 10:32.994 1:08.780 9 + 12.481 + 0.069
12 13 Iglesias, Louis FRA Iglesias Yannick FRA 9 10:36.442 1:08.880 7 + 15.929 + 3.448
13 32 Alva, Ruhaan IND Birel Art India IND 9 10:36.467 1:09.379 7 + 15.954 + 0.025
14 24 Bondarev, Oleksandr UKR Kartprom UKR 9 10:36.649 1:08.746 7 + 16.136 + 0.182
15 3 Crews, Brent USA SRA Karting International CAN 9 10:38.362 1:08.377 8 + 17.849 + 1.713
16 23 Ambiado, Nicolas CHI Marco Ambiado CHI 9 10:38.814 1:09.154 5 + 18.301 + 0.452
17 28 Nazrul Haizal, Adam Mikail MAS Praga Asia KRS MAS 9 10:38.841 1:08.713 4 + 18.328 + 0.027
18 11 Jeffers, Jack USA SRA Karting International CAN 9 10:38.922 1:09.428 7 + 18.409 + 0.081
19 30 Schmeiss, Moritz GER Beule-Kart Racing Team GER 9 10:39.096 1:09.080 9 + 18.583 + 0.174
20 27 Khavalkin, Anatoly RUS Aviagamma RUS 9 10:40.248 1:08.955 5 + 19.735 + 1.152
21 25 Fujii, Shota JPN Eiko Japan JPN 9 10:40.271 1:09.040 4 + 19.758 + 0.023
22 15 Oliveira, Joao POR Nelson Oliveira POR 9 10:40.483 1:09.611 9 + 19.970 + 0.212
23 17 Wally, Muhammad RSA Wally Muhammad RSA 9 10:40.547 1:08.554 5 + 20.034 + 0.064
24 29 Arnett, Harry AUS Int. Karting Distributors AUS 9 10:42.051 1:08.873 5 + 21.538 + 1.504
25 18 Pedersen, Mikkel Gaarde DEN Pedersen Tom Gaarde DEN 9 10:42.362 1:09.392 5 + 21.849 + 0.311
26 21 Kostyna, Rostyslav UKR Kartprom UKR 9 10:42.517 1:09.798 8 + 22.004 + 0.155
27 4 Madden, Jonathan POL Wyrzykowski Motorsport POL 9 10:42.603 1:08.860 6 + 22.090 + 0.086
28 34 Borgert, Manuel ARG Edgardo Fritzler ARG 9 10:42.679 1:09.202 5 + 22.166 + 0.076
29 16 Paniccia, Marcello CAN SRA Karting International CAN 9 10:46.446 1:09.362 7 + 25.933 + 3.767
30 26 Kim, Junho KOR TRK Promotion KOR 9 10:48.193 1:10.178 6 + 27.680 + 1.747
31 36 Dedecker, Douwe BEL Dominique Dedecker BEL 9 10:48.220 1:10.208 5 + 27.707 + 0.027
32 2 Krozser, Menyhert HUN Mhh Kart Team HUN 9 10:49.018 1:08.958 4 + 28.505 + 0.798
33 12 Lykos, Nikolaos GRE Lazarakos Giorgos GRE 9 11:00.942 1:11.832 4 + 40.429 + 11.924
34 8 Khneisser, Edwin LIB Azimut Automotive LIB 9 11:03.341 1:11.034 6 + 42.828 + 2.399
35 10 Van Ruiten, Dani NED Chris Van Ruiten NED 9 11:09.497 1:08.075 5 + 48.984 + 6.156
36 7 Jalava, Aleksi FIN Jalava Mikko FIN 6 8:03.267 1:12.600 5 -3 R -3 R

Pre-Final 125 Mini MAX (R40):
Platz StNr Name NAT Entrant Entrant-Nat Runden Gesamtzeit Fast Lap in Lap Differenz Abstand
1 111 Amand, Marcus FRA Marc Amand FRA 10 10:48.081 1:04.158 9
2 132 Day, Jamie UAE Al Ain Raceway UAE 10 10:49.797 1:04.347 9 + 1.716 + 1.716
3 128 Fourie, Leyton Daniel RSA KMS Europe RSA 10 10:52.599 1:04.760 6 + 4.518 + 2.802
4 103 De Haan, Robert NED GCW De Haan NED 10 10:53.130 1:04.439 10 + 5.049 + 0.531
5 102 Valint, Bence HUN Hargitai Racing HUN 10 10:53.677 1:04.419 9 + 5.596 + 0.547
6 126 Stolcermanis, Tomass LAT 333 Autosport LAT 10 10:53.805 1:04.314 10 + 5.724 + 0.128
7 133 Kekati, Theo UAE Al Ain Raceway UAE 10 10:54.216 1:04.420 10 + 6.135 + 0.411
8 101 Tarillion, Maximilian AUT Speedworld Academy AUT 10 10:56.764 1:04.644 5 + 8.683 + 2.548
9 107 Wharton, James AUS Int. Karting Distributors AUS 10 10:57.623 1:04.089 4 + 9.542 + 0.859
10 110 Tanic, Craig FRA Harry Tanic FRA 10 10:58.990 1:03.967 9 + 10.909 + 1.367
11 104 Kret, Karol POL K-Dyno Kart POL 10 10:59.690 1:04.317 6 + 11.609 + 0.700
12 109 Fox, Aidan USA SRA Karting International USA 10 10:59.894 1:04.362 9 + 11.813 + 0.204
13 125 Lu, Hebiete Nathan CHN Praga Asia KRS MAS 10 11:01.040 1:04.876 7 + 12.959 + 1.146
14 106 Abi Nakhle, Sami-Joe LIB Azimut Automotive LIB 10 11:03.990 1:04.742 8 + 15.909 + 2.950
15 118 Vendelbo, Rasmus DEN Lars Vendelbo DEN 10 11:04.302 1:04.964 7 + 16.221 + 0.312
16 117 Yamashita, Daisuke JPN Eiko Japan JPN 10 11:04.454 1:04.689 10 + 16.373 + 0.152
17 130 Tessaro, Vinicius BRA Wilton Santos junior PAR 10 11:06.228 1:04.311 10 + 18.147 + 1.774
18 116 Ardila Romero, Juan Esteban COL Claudia Toledo COL 10 11:06.521 1:05.189 6 + 18.440 + 0.293
19 115 Arseneau, Justin CAN SRA Karting International CAN 10 11:07.128 1:04.492 6 + 19.047 + 0.607
20 131 Bohdanowicz, Lucas ARG Bohdanowicz Hugo ARG 10 11:07.158 1:05.077 9 + 19.077 + 0.030
21 129 Brion, Andres ARG Bohdanowicz Hugo Ruben ARG 10 11:07.299 1:05.027 9 + 19.218 + 0.141
22 134 Rillaerts, Kai BEL Rillaerts Aite BEL 10 11:07.369 1:04.791 9 + 19.288 + 0.070
23 124 Lopez, Eloy MEX Jose Lopez MEX 10 11:07.617 1:05.192 9 + 19.536 + 0.248
24 127 Hensen, Linus GER Kartschmie.De GER 10 11:08.217 1:04.270 6 + 20.136 + 0.600
25 108 Pierson, Josh USA SRA Karting International CAN 10 11:09.492 1:03.849 9 + 21.411 + 1.275
26 120 Tkachev, Ivan LTU AGS Racing Team EST 10 11:09.588 1:05.066 4 + 21.507 + 0.096
27 114 Sokolov, Iakov RUS Aviagamma RUS 10 11:12.992 1:05.295 10 + 24.911 + 3.404
28 121 Bertocco, Gregorio ITA Bertocco Gregorio ITA 10 11:13.043 1:04.373 10 + 24.962 + 0.051
29 119 Kukuruzov, Daniil UKR Kartprom UKR 10 11:14.033 1:04.836 9 + 25.952 + 0.990
30 113 Clavadetscher, Sacha SUI Speed Racing SUI 10 11:19.565 1:05.308 4 + 31.484 + 5.532
31 105 Valint, Balazs HUN Hargitai Racing HUN 10 11:19.701 1:05.968 8 + 31.620 + 0.136
32 122 Ramirez Pino, Ramon CHI Ramon Ramirez Soto CHI 10 11:38.090 1:05.375 9 + 50.009 + 18.389
33 112 Blomqvist, Joona FIN Blomqvist Joona FIN 10 11:46.286 1:05.907 10 + 58.205 + 8.196
34 135 Alanis, Eric ESP Kids To Win C .E ESP
35 136 Aguilera Lopez, Marco ESP Norma Racing POR
36 123 Kim, Hwarang KOR TRK Promotion KOR


paddock